sensor_id;sensor_type;location;lat;lon;timestamp;P1;durP1;ratioP1;P2;durP2;ratioP2
4603;SDS011;2314;48.272;11.562;2023-11-19T00:02:19;23.93;;;10.57;;
4603;SDS011;2314;48.272;11.562;2023-11-19T00:04:46;15.13;;;8.10;;
4603;SDS011;2314;48.272;11.562;2023-11-19T00:07:13;9.30;;;4.60;;
4603;SDS011;2314;48.272;11.562;2023-11-19T00:09:40;6.23;;;3.93;;
4603;SDS011;2314;48.272;11.562;2023-11-19T00:12:10;6.60;;;3.63;;
4603;SDS011;2314;48.272;11.562;2023-11-19T00:14:38;4.43;;;3.00;;
4603;SDS011;2314;48.272;11.562;2023-11-19T00:17:06;8.40;;;4.43;;
4603;SDS011;2314;48.272;11.562;2023-11-19T00:19:32;7.93;;;5.07;;
4603;SDS011;2314;48.272;11.562;2023-11-19T00:22:00;10.03;;;6.17;;
4603;SDS011;2314;48.272;11.562;2023-11-19T00:24:28;8.27;;;4.80;;
4603;SDS011;2314;48.272;11.562;2023-11-19T00:26:55;5.97;;;3.90;;
4603;SDS011;2314;48.272;11.562;2023-11-19T00:29:24;5.40;;;2.97;;
4603;SDS011;2314;48.272;11.562;2023-11-19T00:31:51;5.13;;;3.40;;
4603;SDS011;2314;48.272;11.562;2023-11-19T00:34:18;10.27;;;5.40;;
4603;SDS011;2314;48.272;11.562;2023-11-19T00:36:46;9.83;;;4.97;;
4603;SDS011;2314;48.272;11.562;2023-11-19T00:39:14;9.50;;;5.10;;
4603;SDS011;2314;48.272;11.562;2023-11-19T00:41:41;10.13;;;4.90;;
4603;SDS011;2314;48.272;11.562;2023-11-19T00:44:08;9.07;;;4.40;;
4603;SDS011;2314;48.272;11.562;2023-11-19T00:46:36;8.53;;;3.80;;
4603;SDS011;2314;48.272;11.562;2023-11-19T00:49:03;7.10;;;4.17;;
4603;SDS011;2314;48.272;11.562;2023-11-19T00:51:30;8.67;;;4.67;;
4603;SDS011;2314;48.272;11.562;2023-11-19T00:53:58;6.00;;;3.70;;
4603;SDS011;2314;48.272;11.562;2023-11-19T00:56:25;5.73;;;3.53;;
4603;SDS011;2314;48.272;11.562;2023-11-19T00:58:53;7.47;;;4.17;;
4603;SDS011;2314;48.272;11.562;2023-11-19T01:01:20;8.10;;;3.90;;
4603;SDS011;2314;48.272;11.562;2023-11-19T01:03:49;7.40;;;4.00;;
4603;SDS011;2314;48.272;11.562;2023-11-19T01:06:26;8.60;;;3.87;;
4603;SDS011;2314;48.272;11.562;2023-11-19T01:08:53;6.30;;;3.40;;
4603;SDS011;2314;48.272;11.562;2023-11-19T01:11:21;5.03;;;3.27;;
4603;SDS011;2314;48.272;11.562;2023-11-19T01:13:49;5.77;;;3.50;;
4603;SDS011;2314;48.272;11.562;2023-11-19T01:16:17;7.00;;;3.40;;
4603;SDS011;2314;48.272;11.562;2023-11-19T01:18:46;8.10;;;4.07;;
4603;SDS011;2314;48.272;11.562;2023-11-19T01:21:15;5.70;;;3.50;;
4603;SDS011;2314;48.272;11.562;2023-11-19T01:23:42;5.17;;;3.00;;
4603;SDS011;2314;48.272;11.562;2023-11-19T01:26:10;11.70;;;3.70;;
4603;SDS011;2314;48.272;11.562;2023-11-19T01:28:38;7.03;;;3.53;;
4603;SDS011;2314;48.272;11.562;2023-11-19T01:31:08;5.40;;;3.27;;
4603;SDS011;2314;48.272;11.562;2023-11-19T01:33:35;5.37;;;3.27;;
4603;SDS011;2314;48.272;11.562;2023-11-19T01:36:03;7.47;;;3.70;;
4603;SDS011;2314;48.272;11.562;2023-11-19T01:38:32;5.97;;;3.47;;
4603;SDS011;2314;48.272;11.562;2023-11-19T01:40:59;5.60;;;3.43;;
4603;SDS011;2314;48.272;11.562;2023-11-19T01:43:31;7.23;;;4.37;;
4603;SDS011;2314;48.272;11.562;2023-11-19T01:45:59;5.70;;;3.57;;
4603;SDS011;2314;48.272;11.562;2023-11-19T01:48:26;6.83;;;3.50;;
4603;SDS011;2314;48.272;11.562;2023-11-19T01:50:54;7.43;;;4.10;;
4603;SDS011;2314;48.272;11.562;2023-11-19T01:53:23;4.60;;;2.90;;
4603;SDS011;2314;48.272;11.562;2023-11-19T01:55:52;5.30;;;3.77;;
4603;SDS011;2314;48.272;11.562;2023-11-19T01:58:19;5.17;;;3.20;;
4603;SDS011;2314;48.272;11.562;2023-11-19T02:00:46;8.50;;;3.77;;
4603;SDS011;2314;48.272;11.562;2023-11-19T02:03:14;5.60;;;2.97;;
4603;SDS011;2314;48.272;11.562;2023-11-19T02:05:41;5.60;;;3.10;;
4603;SDS011;2314;48.272;11.562;2023-11-19T02:08:08;5.93;;;3.00;;
4603;SDS011;2314;48.272;11.562;2023-11-19T02:10:35;4.40;;;2.40;;
4603;SDS011;2314;48.272;11.562;2023-11-19T02:13:04;7.83;;;3.10;;
4603;SDS011;2314;48.272;11.562;2023-11-19T02:15:32;4.67;;;3.00;;
4603;SDS011;2314;48.272;11.562;2023-11-19T02:20:45;5.50;;;3.27;;
4603;SDS011;2314;48.272;11.562;2023-11-19T02:23:13;4.97;;;2.53;;
4603;SDS011;2314;48.272;11.562;2023-11-19T02:25:40;4.80;;;2.70;;
4603;SDS011;2314;48.272;11.562;2023-11-19T02:28:09;5.10;;;2.90;;
4603;SDS011;2314;48.272;11.562;2023-11-19T02:30:37;6.30;;;2.80;;
4603;SDS011;2314;48.272;11.562;2023-11-19T02:33:04;9.10;;;3.63;;
4603;SDS011;2314;48.272;11.562;2023-11-19T02:35:32;3.83;;;2.00;;
4603;SDS011;2314;48.272;11.562;2023-11-19T02:37:59;4.37;;;2.47;;
4603;SDS011;2314;48.272;11.562;2023-11-19T02:40:29;4.70;;;2.40;;
4603;SDS011;2314;48.272;11.562;2023-11-19T02:42:56;4.87;;;2.57;;
4603;SDS011;2314;48.272;11.562;2023-11-19T02:45:24;4.40;;;2.37;;
4603;SDS011;2314;48.272;11.562;2023-11-19T02:47:52;4.97;;;2.17;;
4603;SDS011;2314;48.272;11.562;2023-11-19T02:50:20;3.60;;;2.00;;
4603;SDS011;2314;48.272;11.562;2023-11-19T02:52:51;3.97;;;2.03;;
4603;SDS011;2314;48.272;11.562;2023-11-19T02:55:21;4.70;;;2.00;;
4603;SDS011;2314;48.272;11.562;2023-11-19T02:57:49;5.27;;;2.07;;
4603;SDS011;2314;48.272;11.562;2023-11-19T03:00:18;3.33;;;1.77;;
4603;SDS011;2314;48.272;11.562;2023-11-19T03:02:51;4.20;;;1.70;;
4603;SDS011;2314;48.272;11.562;2023-11-19T03:05:24;2.60;;;1.10;;
4603;SDS011;2314;48.272;11.562;2023-11-19T03:07:55;2.40;;;1.17;;
4603;SDS011;2314;48.272;11.562;2023-11-19T03:10:23;3.03;;;1.17;;
4603;SDS011;2314;48.272;11.562;2023-11-19T03:12:50;1.97;;;1.00;;
4603;SDS011;2314;48.272;11.562;2023-11-19T03:15:17;2.10;;;1.00;;
4603;SDS011;2314;48.272;11.562;2023-11-19T03:17:46;2.13;;;0.97;;
4603;SDS011;2314;48.272;11.562;2023-11-19T03:20:14;2.03;;;0.80;;
4603;SDS011;2314;48.272;11.562;2023-11-19T03:22:42;3.63;;;1.03;;
4603;SDS011;2314;48.272;11.562;2023-11-19T03:25:09;2.40;;;1.20;;
4603;SDS011;2314;48.272;11.562;2023-11-19T03:27:38;2.00;;;1.10;;
4603;SDS011;2314;48.272;11.562;2023-11-19T03:30:07;2.07;;;0.90;;
4603;SDS011;2314;48.272;11.562;2023-11-19T03:32:35;3.40;;;1.10;;
4603;SDS011;2314;48.272;11.562;2023-11-19T03:35:04;2.93;;;1.27;;
4603;SDS011;2314;48.272;11.562;2023-11-19T03:37:35;2.70;;;0.97;;
4603;SDS011;2314;48.272;11.562;2023-11-19T03:40:02;2.93;;;1.13;;
4603;SDS011;2314;48.272;11.562;2023-11-19T03:42:31;2.13;;;1.00;;
4603;SDS011;2314;48.272;11.562;2023-11-19T03:44:58;3.17;;;0.90;;
4603;SDS011;2314;48.272;11.562;2023-11-19T03:47:25;2.00;;;0.90;;
4603;SDS011;2314;48.272;11.562;2023-11-19T03:49:52;2.60;;;0.97;;
4603;SDS011;2314;48.272;11.562;2023-11-19T03:52:19;3.00;;;0.90;;
4603;SDS011;2314;48.272;11.562;2023-11-19T03:54:48;1.90;;;0.70;;
4603;SDS011;2314;48.272;11.562;2023-11-19T03:57:15;1.87;;;0.90;;
4603;SDS011;2314;48.272;11.562;2023-11-19T03:59:42;2.20;;;0.97;;
4603;SDS011;2314;48.272;11.562;2023-11-19T04:02:09;1.70;;;0.80;;
4603;SDS011;2314;48.272;11.562;2023-11-19T04:04:36;2.40;;;1.10;;
4603;SDS011;2314;48.272;11.562;2023-11-19T04:07:04;2.93;;;0.90;;
4603;SDS011;2314;48.272;11.562;2023-11-19T04:09:31;1.90;;;0.90;;
4603;SDS011;2314;48.272;11.562;2023-11-19T04:12:00;1.97;;;1.00;;
4603;SDS011;2314;48.272;11.562;2023-11-19T04:14:27;3.90;;;0.87;;
4603;SDS011;2314;48.272;11.562;2023-11-19T04:16:54;2.63;;;1.00;;
4603;SDS011;2314;48.272;11.562;2023-11-19T04:19:21;1.60;;;0.70;;
4603;SDS011;2314;48.272;11.562;2023-11-19T04:21:48;2.60;;;1.20;;
4603;SDS011;2314;48.272;11.562;2023-11-19T04:24:15;2.07;;;0.90;;
4603;SDS011;2314;48.272;11.562;2023-11-19T04:26:42;1.83;;;0.90;;
4603;SDS011;2314;48.272;11.562;2023-11-19T04:29:13;2.10;;;1.00;;
4603;SDS011;2314;48.272;11.562;2023-11-19T04:31:42;2.20;;;1.10;;
4603;SDS011;2314;48.272;11.562;2023-11-19T04:34:10;1.60;;;0.80;;
4603;SDS011;2314;48.272;11.562;2023-11-19T04:36:38;1.90;;;1.10;;
4603;SDS011;2314;48.272;11.562;2023-11-19T04:39:05;3.13;;;1.10;;
4603;SDS011;2314;48.272;11.562;2023-11-19T04:41:45;2.30;;;0.87;;
4603;SDS011;2314;48.272;11.562;2023-11-19T04:44:15;1.70;;;0.80;;
4603;SDS011;2314;48.272;11.562;2023-11-19T04:46:42;2.30;;;1.10;;
4603;SDS011;2314;48.272;11.562;2023-11-19T04:49:10;2.40;;;0.90;;
4603;SDS011;2314;48.272;11.562;2023-11-19T04:51:38;1.90;;;1.00;;
4603;SDS011;2314;48.272;11.562;2023-11-19T04:54:06;2.00;;;1.10;;
4603;SDS011;2314;48.272;11.562;2023-11-19T04:56:34;1.97;;;0.83;;
4603;SDS011;2314;48.272;11.562;2023-11-19T04:59:02;1.90;;;0.90;;
4603;SDS011;2314;48.272;11.562;2023-11-19T05:01:32;1.80;;;0.90;;
4603;SDS011;2314;48.272;11.562;2023-11-19T05:03:59;3.10;;;1.40;;
4603;SDS011;2314;48.272;11.562;2023-11-19T05:06:27;2.20;;;1.07;;
4603;SDS011;2314;48.272;11.562;2023-11-19T05:08:54;2.27;;;1.13;;
4603;SDS011;2314;48.272;11.562;2023-11-19T05:11:22;2.23;;;1.00;;
4603;SDS011;2314;48.272;11.562;2023-11-19T05:13:49;2.17;;;1.00;;
4603;SDS011;2314;48.272;11.562;2023-11-19T05:16:16;2.93;;;1.30;;
4603;SDS011;2314;48.272;11.562;2023-11-19T05:18:45;2.90;;;1.53;;
4603;SDS011;2314;48.272;11.562;2023-11-19T05:21:12;1.90;;;0.90;;
4603;SDS011;2314;48.272;11.562;2023-11-19T05:23:39;2.13;;;1.00;;
4603;SDS011;2314;48.272;11.562;2023-11-19T05:26:07;2.37;;;1.10;;
4603;SDS011;2314;48.272;11.562;2023-11-19T05:28:35;2.17;;;1.00;;
4603;SDS011;2314;48.272;11.562;2023-11-19T05:31:05;3.53;;;1.00;;
4603;SDS011;2314;48.272;11.562;2023-11-19T05:33:32;2.00;;;0.83;;
4603;SDS011;2314;48.272;11.562;2023-11-19T05:36:00;2.07;;;1.33;;
4603;SDS011;2314;48.272;11.562;2023-11-19T05:38:28;2.50;;;0.93;;
4603;SDS011;2314;48.272;11.562;2023-11-19T05:40:55;2.00;;;0.90;;
4603;SDS011;2314;48.272;11.562;2023-11-19T05:43:22;2.07;;;1.00;;
4603;SDS011;2314;48.272;11.562;2023-11-19T05:45:49;2.90;;;0.97;;
4603;SDS011;2314;48.272;11.562;2023-11-19T05:48:16;2.27;;;1.20;;
4603;SDS011;2314;48.272;11.562;2023-11-19T05:50:43;2.27;;;1.30;;
4603;SDS011;2314;48.272;11.562;2023-11-19T05:53:12;2.07;;;1.10;;
4603;SDS011;2314;48.272;11.562;2023-11-19T05:55:39;4.03;;;1.10;;
4603;SDS011;2314;48.272;11.562;2023-11-19T05:58:13;2.60;;;1.20;;
4603;SDS011;2314;48.272;11.562;2023-11-19T06:00:41;2.37;;;1.03;;
4603;SDS011;2314;48.272;11.562;2023-11-19T06:03:09;2.07;;;1.07;;
4603;SDS011;2314;48.272;11.562;2023-11-19T06:05:36;1.60;;;0.80;;
4603;SDS011;2314;48.272;11.562;2023-11-19T06:08:03;2.53;;;1.20;;
4603;SDS011;2314;48.272;11.562;2023-11-19T06:10:33;2.60;;;1.10;;
4603;SDS011;2314;48.272;11.562;2023-11-19T06:13:00;2.70;;;0.80;;
4603;SDS011;2314;48.272;11.562;2023-11-19T06:15:30;2.47;;;1.10;;
4603;SDS011;2314;48.272;11.562;2023-11-19T06:17:58;2.87;;;1.10;;
4603;SDS011;2314;48.272;11.562;2023-11-19T06:20:26;1.83;;;0.90;;
4603;SDS011;2314;48.272;11.562;2023-11-19T06:22:54;1.93;;;0.80;;
4603;SDS011;2314;48.272;11.562;2023-11-19T06:25:21;1.70;;;0.90;;
4603;SDS011;2314;48.272;11.562;2023-11-19T06:27:50;2.17;;;1.10;;
4603;SDS011;2314;48.272;11.562;2023-11-19T06:30:18;1.70;;;0.80;;
4603;SDS011;2314;48.272;11.562;2023-11-19T06:32:45;2.03;;;1.00;;
4603;SDS011;2314;48.272;11.562;2023-11-19T06:35:12;2.17;;;1.10;;
4603;SDS011;2314;48.272;11.562;2023-11-19T06:37:40;1.70;;;0.90;;
4603;SDS011;2314;48.272;11.562;2023-11-19T06:40:07;1.60;;;0.90;;
4603;SDS011;2314;48.272;11.562;2023-11-19T06:42:35;2.57;;;1.20;;
4603;SDS011;2314;48.272;11.562;2023-11-19T06:45:05;1.77;;;0.80;;
4603;SDS011;2314;48.272;11.562;2023-11-19T06:47:33;1.60;;;0.70;;
4603;SDS011;2314;48.272;11.562;2023-11-19T06:50:00;2.20;;;1.10;;
4603;SDS011;2314;48.272;11.562;2023-11-19T06:52:30;2.60;;;1.23;;
4603;SDS011;2314;48.272;11.562;2023-11-19T06:54:58;2.20;;;1.00;;
4603;SDS011;2314;48.272;11.562;2023-11-19T06:57:25;2.07;;;1.00;;
4603;SDS011;2314;48.272;11.562;2023-11-19T06:59:54;1.80;;;0.90;;
4603;SDS011;2314;48.272;11.562;2023-11-19T07:02:22;1.80;;;0.87;;
4603;SDS011;2314;48.272;11.562;2023-11-19T07:04:53;2.30;;;0.90;;
4603;SDS011;2314;48.272;11.562;2023-11-19T07:07:20;2.47;;;0.97;;
4603;SDS011;2314;48.272;11.562;2023-11-19T07:09:47;1.80;;;0.70;;
4603;SDS011;2314;48.272;11.562;2023-11-19T07:12:15;2.83;;;1.33;;
4603;SDS011;2314;48.272;11.562;2023-11-19T07:14:42;1.60;;;0.90;;
4603;SDS011;2314;48.272;11.562;2023-11-19T07:17:10;1.50;;;0.70;;
4603;SDS011;2314;48.272;11.562;2023-11-19T07:19:38;1.80;;;0.80;;
4603;SDS011;2314;48.272;11.562;2023-11-19T07:22:05;1.57;;;0.63;;
4603;SDS011;2314;48.272;11.562;2023-11-19T07:24:33;1.73;;;0.90;;
4603;SDS011;2314;48.272;11.562;2023-11-19T07:27:00;1.50;;;0.63;;
4603;SDS011;2314;48.272;11.562;2023-11-19T07:29:29;1.90;;;0.80;;
4603;SDS011;2314;48.272;11.562;2023-11-19T07:31:56;1.80;;;0.80;;
4603;SDS011;2314;48.272;11.562;2023-11-19T07:34:24;1.70;;;0.80;;
4603;SDS011;2314;48.272;11.562;2023-11-19T07:36:52;3.07;;;1.03;;
4603;SDS011;2314;48.272;11.562;2023-11-19T07:39:22;1.90;;;0.70;;
4603;SDS011;2314;48.272;11.562;2023-11-19T07:41:49;1.70;;;0.60;;
4603;SDS011;2314;48.272;11.562;2023-11-19T07:44:20;2.17;;;0.70;;
4603;SDS011;2314;48.272;11.562;2023-11-19T07:46:47;2.80;;;0.77;;
4603;SDS011;2314;48.272;11.562;2023-11-19T07:49:14;1.60;;;0.80;;
4603;SDS011;2314;48.272;11.562;2023-11-19T07:51:41;2.23;;;0.80;;
4603;SDS011;2314;48.272;11.562;2023-11-19T07:54:09;1.47;;;0.67;;
4603;SDS011;2314;48.272;11.562;2023-11-19T07:56:36;1.43;;;0.77;;
4603;SDS011;2314;48.272;11.562;2023-11-19T07:59:04;1.47;;;0.60;;
4603;SDS011;2314;48.272;11.562;2023-11-19T08:01:31;1.60;;;0.70;;
4603;SDS011;2314;48.272;11.562;2023-11-19T08:03:58;1.70;;;0.70;;
4603;SDS011;2314;48.272;11.562;2023-11-19T08:06:26;1.50;;;0.60;;
4603;SDS011;2314;48.272;11.562;2023-11-19T08:08:54;1.97;;;0.60;;
4603;SDS011;2314;48.272;11.562;2023-11-19T08:11:23;1.73;;;0.63;;
4603;SDS011;2314;48.272;11.562;2023-11-19T08:13:55;1.90;;;0.70;;
4603;SDS011;2314;48.272;11.562;2023-11-19T08:16:22;1.40;;;0.60;;
4603;SDS011;2314;48.272;11.562;2023-11-19T08:18:49;1.70;;;0.70;;
4603;SDS011;2314;48.272;11.562;2023-11-19T08:21:16;2.80;;;0.60;;
4603;SDS011;2314;48.272;11.562;2023-11-19T08:23:44;1.60;;;0.70;;
4603;SDS011;2314;48.272;11.562;2023-11-19T08:26:11;1.50;;;0.60;;
4603;SDS011;2314;48.272;11.562;2023-11-19T08:28:39;1.40;;;0.60;;
4603;SDS011;2314;48.272;11.562;2023-11-19T08:31:07;2.07;;;0.60;;
4603;SDS011;2314;48.272;11.562;2023-11-19T08:33:34;1.40;;;0.67;;
4603;SDS011;2314;48.272;11.562;2023-11-19T08:36:02;1.60;;;0.60;;
4603;SDS011;2314;48.272;11.562;2023-11-19T08:38:30;1.30;;;0.53;;
4603;SDS011;2314;48.272;11.562;2023-11-19T08:40:57;1.70;;;0.70;;
4603;SDS011;2314;48.272;11.562;2023-11-19T08:43:25;2.00;;;0.80;;
4603;SDS011;2314;48.272;11.562;2023-11-19T08:45:53;1.50;;;0.70;;
4603;SDS011;2314;48.272;11.562;2023-11-19T08:48:20;2.10;;;0.90;;
4603;SDS011;2314;48.272;11.562;2023-11-19T08:50:47;1.60;;;0.60;;
4603;SDS011;2314;48.272;11.562;2023-11-19T08:53:14;1.77;;;0.63;;
4603;SDS011;2314;48.272;11.562;2023-11-19T08:55:41;1.40;;;0.67;;
4603;SDS011;2314;48.272;11.562;2023-11-19T08:58:09;1.73;;;0.63;;
4603;SDS011;2314;48.272;11.562;2023-11-19T09:00:36;1.90;;;0.80;;
4603;SDS011;2314;48.272;11.562;2023-11-19T09:03:04;1.43;;;0.70;;
4603;SDS011;2314;48.272;11.562;2023-11-19T09:05:31;1.70;;;0.60;;
4603;SDS011;2314;48.272;11.562;2023-11-19T09:07:58;1.40;;;0.60;;
4603;SDS011;2314;48.272;11.562;2023-11-19T09:10:25;1.63;;;0.80;;
4603;SDS011;2314;48.272;11.562;2023-11-19T09:12:54;1.50;;;0.60;;
4603;SDS011;2314;48.272;11.562;2023-11-19T09:15:21;3.00;;;0.80;;
4603;SDS011;2314;48.272;11.562;2023-11-19T09:17:49;1.63;;;0.70;;
4603;SDS011;2314;48.272;11.562;2023-11-19T09:20:17;1.63;;;0.77;;
4603;SDS011;2314;48.272;11.562;2023-11-19T09:22:44;2.20;;;0.70;;
4603;SDS011;2314;48.272;11.562;2023-11-19T09:25:11;1.60;;;0.70;;
4603;SDS011;2314;48.272;11.562;2023-11-19T09:27:41;2.47;;;0.80;;
4603;SDS011;2314;48.272;11.562;2023-11-19T09:30:09;1.70;;;0.60;;
4603;SDS011;2314;48.272;11.562;2023-11-19T09:32:37;1.40;;;0.60;;
4603;SDS011;2314;48.272;11.562;2023-11-19T09:35:05;1.63;;;0.70;;
4603;SDS011;2314;48.272;11.562;2023-11-19T09:37:34;1.40;;;0.60;;
4603;SDS011;2314;48.272;11.562;2023-11-19T09:40:01;2.93;;;0.80;;
4603;SDS011;2314;48.272;11.562;2023-11-19T09:42:29;2.73;;;0.80;;
4603;SDS011;2314;48.272;11.562;2023-11-19T09:45:13;3.17;;;0.70;;
4603;SDS011;2314;48.272;11.562;2023-11-19T09:47:44;1.90;;;0.70;;
4603;SDS011;2314;48.272;11.562;2023-11-19T09:50:13;1.90;;;0.70;;
4603;SDS011;2314;48.272;11.562;2023-11-19T09:52:45;5.10;;;2.23;;
4603;SDS011;2314;48.272;11.562;2023-11-19T09:55:13;3.40;;;0.80;;
4603;SDS011;2314;48.272;11.562;2023-11-19T09:57:41;2.53;;;0.63;;
4603;SDS011;2314;48.272;11.562;2023-11-19T10:00:10;1.57;;;0.60;;
4603;SDS011;2314;48.272;11.562;2023-11-19T10:02:40;2.40;;;0.80;;
4603;SDS011;2314;48.272;11.562;2023-11-19T10:05:11;1.40;;;0.60;;
4603;SDS011;2314;48.272;11.562;2023-11-19T10:07:39;5.13;;;0.80;;
4603;SDS011;2314;48.272;11.562;2023-11-19T10:10:09;1.40;;;0.70;;
4603;SDS011;2314;48.272;11.562;2023-11-19T10:12:39;1.60;;;0.60;;
4603;SDS011;2314;48.272;11.562;2023-11-19T10:15:07;2.03;;;0.80;;
4603;SDS011;2314;48.272;11.562;2023-11-19T10:17:43;1.50;;;0.70;;
4603;SDS011;2314;48.272;11.562;2023-11-19T10:20:10;1.50;;;0.60;;
4603;SDS011;2314;48.272;11.562;2023-11-19T10:22:38;1.30;;;0.60;;
4603;SDS011;2314;48.272;11.562;2023-11-19T10:25:05;3.20;;;0.80;;
4603;SDS011;2314;48.272;11.562;2023-11-19T10:27:49;1.80;;;0.70;;
4603;SDS011;2314;48.272;11.562;2023-11-19T10:30:17;1.47;;;0.70;;
4603;SDS011;2314;48.272;11.562;2023-11-19T10:32:45;2.13;;;0.80;;
4603;SDS011;2314;48.272;11.562;2023-11-19T10:35:12;2.60;;;0.77;;
4603;SDS011;2314;48.272;11.562;2023-11-19T10:37:39;1.57;;;0.70;;
4603;SDS011;2314;48.272;11.562;2023-11-19T10:40:07;3.10;;;0.67;;
4603;SDS011;2314;48.272;11.562;2023-11-19T10:42:38;1.80;;;0.70;;
4603;SDS011;2314;48.272;11.562;2023-11-19T10:45:08;2.10;;;0.80;;
4603;SDS011;2314;48.272;11.562;2023-11-19T10:47:49;2.00;;;0.70;;
4603;SDS011;2314;48.272;11.562;2023-11-19T10:50:18;1.50;;;0.60;;
4603;SDS011;2314;48.272;11.562;2023-11-19T10:52:45;1.87;;;0.77;;
4603;SDS011;2314;48.272;11.562;2023-11-19T10:55:14;1.80;;;0.80;;
4603;SDS011;2314;48.272;11.562;2023-11-19T10:57:46;2.13;;;0.80;;
4603;SDS011;2314;48.272;11.562;2023-11-19T11:00:15;1.90;;;0.70;;
4603;SDS011;2314;48.272;11.562;2023-11-19T11:02:46;3.07;;;0.90;;
4603;SDS011;2314;48.272;11.562;2023-11-19T11:05:16;1.60;;;0.70;;
4603;SDS011;2314;48.272;11.562;2023-11-19T11:07:45;1.77;;;0.77;;
4603;SDS011;2314;48.272;11.562;2023-11-19T11:10:12;1.50;;;0.60;;
4603;SDS011;2314;48.272;11.562;2023-11-19T11:12:40;1.60;;;0.60;;
4603;SDS011;2314;48.272;11.562;2023-11-19T11:15:11;1.90;;;0.73;;
4603;SDS011;2314;48.272;11.562;2023-11-19T11:17:39;1.87;;;0.77;;
4603;SDS011;2314;48.272;11.562;2023-11-19T11:20:08;1.50;;;0.60;;
4603;SDS011;2314;48.272;11.562;2023-11-19T11:22:39;1.40;;;0.60;;
4603;SDS011;2314;48.272;11.562;2023-11-19T11:25:19;1.73;;;0.60;;
4603;SDS011;2314;48.272;11.562;2023-11-19T11:28:11;1.90;;;0.70;;
4603;SDS011;2314;48.272;11.562;2023-11-19T11:30:54;1.80;;;0.70;;
4603;SDS011;2314;48.272;11.562;2023-11-19T11:33:40;1.60;;;0.63;;
4603;SDS011;2314;48.272;11.562;2023-11-19T11:36:25;1.93;;;0.90;;
4603;SDS011;2314;48.272;11.562;2023-11-19T11:38:53;1.70;;;0.67;;
4603;SDS011;2314;48.272;11.562;2023-11-19T11:41:25;1.40;;;0.60;;
4603;SDS011;2314;48.272;11.562;2023-11-19T11:43:53;1.50;;;0.60;;
4603;SDS011;2314;48.272;11.562;2023-11-19T11:49:25;1.60;;;0.60;;
4603;SDS011;2314;48.272;11.562;2023-11-19T11:51:58;1.87;;;0.63;;
4603;SDS011;2314;48.272;11.562;2023-11-19T11:54:26;1.47;;;0.57;;
4603;SDS011;2314;48.272;11.562;2023-11-19T11:57:08;1.40;;;0.50;;
4603;SDS011;2314;48.272;11.562;2023-11-19T11:59:47;1.40;;;0.50;;
4603;SDS011;2314;48.272;11.562;2023-11-19T12:02:17;1.50;;;0.50;;
4603;SDS011;2314;48.272;11.562;2023-11-19T12:04:56;2.23;;;0.77;;
4603;SDS011;2314;48.272;11.562;2023-11-19T12:07:23;1.50;;;0.60;;
4603;SDS011;2314;48.272;11.562;2023-11-19T12:09:53;2.30;;;0.63;;
4603;SDS011;2314;48.272;11.562;2023-11-19T12:12:33;1.50;;;0.60;;
4603;SDS011;2314;48.272;11.562;2023-11-19T12:15:07;1.43;;;0.60;;
4603;SDS011;2314;48.272;11.562;2023-11-19T12:17:37;1.63;;;0.70;;
4603;SDS011;2314;48.272;11.562;2023-11-19T12:20:14;1.67;;;0.60;;
4603;SDS011;2314;48.272;11.562;2023-11-19T12:22:42;1.60;;;0.70;;
4603;SDS011;2314;48.272;11.562;2023-11-19T12:25:11;1.60;;;0.60;;
4603;SDS011;2314;48.272;11.562;2023-11-19T12:27:39;1.50;;;0.60;;
4603;SDS011;2314;48.272;11.562;2023-11-19T12:30:08;1.83;;;0.60;;
4603;SDS011;2314;48.272;11.562;2023-11-19T12:32:41;1.60;;;0.70;;
4603;SDS011;2314;48.272;11.562;2023-11-19T12:35:09;1.67;;;0.50;;
4603;SDS011;2314;48.272;11.562;2023-11-19T12:37:40;1.80;;;0.60;;
4603;SDS011;2314;48.272;11.562;2023-11-19T12:40:14;1.40;;;0.63;;
4603;SDS011;2314;48.272;11.562;2023-11-19T12:42:42;1.50;;;0.60;;
4603;SDS011;2314;48.272;11.562;2023-11-19T12:45:10;1.80;;;0.70;;
4603;SDS011;2314;48.272;11.562;2023-11-19T12:47:38;1.70;;;0.67;;
4603;SDS011;2314;48.272;11.562;2023-11-19T12:50:07;1.50;;;0.60;;
4603;SDS011;2314;48.272;11.562;2023-11-19T12:52:35;1.80;;;0.80;;
4603;SDS011;2314;48.272;11.562;2023-11-19T12:55:02;1.90;;;0.70;;
4603;SDS011;2314;48.272;11.562;2023-11-19T12:57:37;1.60;;;0.57;;
4603;SDS011;2314;48.272;11.562;2023-11-19T13:00:17;1.80;;;0.80;;
4603;SDS011;2314;48.272;11.562;2023-11-19T13:02:49;1.80;;;0.70;;
4603;SDS011;2314;48.272;11.562;2023-11-19T13:05:23;1.80;;;0.57;;
4603;SDS011;2314;48.272;11.562;2023-11-19T13:07:59;1.60;;;0.70;;
4603;SDS011;2314;48.272;11.562;2023-11-19T13:10:27;1.50;;;0.60;;
4603;SDS011;2314;48.272;11.562;2023-11-19T13:13:01;2.57;;;0.80;;
4603;SDS011;2314;48.272;11.562;2023-11-19T13:15:30;1.47;;;0.53;;
4603;SDS011;2314;48.272;11.562;2023-11-19T13:17:59;1.40;;;0.60;;
4603;SDS011;2314;48.272;11.562;2023-11-19T13:20:27;1.47;;;0.60;;
4603;SDS011;2314;48.272;11.562;2023-11-19T13:22:55;1.63;;;0.77;;
4603;SDS011;2314;48.272;11.562;2023-11-19T13:25:26;1.57;;;0.50;;
4603;SDS011;2314;48.272;11.562;2023-11-19T13:27:54;1.80;;;0.80;;
4603;SDS011;2314;48.272;11.562;2023-11-19T13:30:22;1.40;;;0.50;;
4603;SDS011;2314;48.272;11.562;2023-11-19T13:32:50;1.53;;;0.70;;
4603;SDS011;2314;48.272;11.562;2023-11-19T13:35:21;1.50;;;0.60;;
4603;SDS011;2314;48.272;11.562;2023-11-19T13:37:48;1.40;;;0.60;;
4603;SDS011;2314;48.272;11.562;2023-11-19T13:40:16;1.80;;;0.70;;
4603;SDS011;2314;48.272;11.562;2023-11-19T13:42:44;1.70;;;0.80;;
4603;SDS011;2314;48.272;11.562;2023-11-19T13:45:12;1.40;;;0.60;;
4603;SDS011;2314;48.272;11.562;2023-11-19T13:47:40;1.40;;;0.50;;
4603;SDS011;2314;48.272;11.562;2023-11-19T13:50:09;1.50;;;0.60;;
4603;SDS011;2314;48.272;11.562;2023-11-19T13:52:38;2.33;;;0.70;;
4603;SDS011;2314;48.272;11.562;2023-11-19T13:55:07;1.70;;;0.70;;
4603;SDS011;2314;48.272;11.562;2023-11-19T13:57:36;1.50;;;0.60;;
4603;SDS011;2314;48.272;11.562;2023-11-19T14:00:04;1.50;;;0.63;;
4603;SDS011;2314;48.272;11.562;2023-11-19T14:02:36;1.40;;;0.50;;
4603;SDS011;2314;48.272;11.562;2023-11-19T14:05:03;1.93;;;0.60;;
4603;SDS011;2314;48.272;11.562;2023-11-19T14:07:30;1.40;;;0.53;;
4603;SDS011;2314;48.272;11.562;2023-11-19T14:09:59;1.60;;;0.70;;
4603;SDS011;2314;48.272;11.562;2023-11-19T14:12:26;2.70;;;0.63;;
4603;SDS011;2314;48.272;11.562;2023-11-19T14:14:53;2.50;;;0.90;;
4603;SDS011;2314;48.272;11.562;2023-11-19T14:17:20;1.30;;;0.60;;
4603;SDS011;2314;48.272;11.562;2023-11-19T14:19:47;1.83;;;0.70;;
4603;SDS011;2314;48.272;11.562;2023-11-19T14:22:14;1.77;;;0.70;;
4603;SDS011;2314;48.272;11.562;2023-11-19T14:24:41;1.77;;;0.60;;
4603;SDS011;2314;48.272;11.562;2023-11-19T14:27:10;1.30;;;0.50;;
4603;SDS011;2314;48.272;11.562;2023-11-19T14:29:37;1.40;;;0.60;;
4603;SDS011;2314;48.272;11.562;2023-11-19T14:32:05;2.47;;;0.60;;
4603;SDS011;2314;48.272;11.562;2023-11-19T14:34:32;2.33;;;0.70;;
4603;SDS011;2314;48.272;11.562;2023-11-19T14:36:59;1.70;;;0.70;;
4603;SDS011;2314;48.272;11.562;2023-11-19T14:39:27;1.47;;;0.67;;
4603;SDS011;2314;48.272;11.562;2023-11-19T14:41:56;2.17;;;0.70;;
4603;SDS011;2314;48.272;11.562;2023-11-19T14:44:27;1.30;;;0.50;;
4603;SDS011;2314;48.272;11.562;2023-11-19T14:46:54;1.40;;;0.60;;
4603;SDS011;2314;48.272;11.562;2023-11-19T14:49:22;1.70;;;0.70;;
4603;SDS011;2314;48.272;11.562;2023-11-19T14:51:50;2.00;;;0.70;;
4603;SDS011;2314;48.272;11.562;2023-11-19T14:54:17;2.07;;;0.80;;
4603;SDS011;2314;48.272;11.562;2023-11-19T14:56:44;1.93;;;0.70;;
4603;SDS011;2314;48.272;11.562;2023-11-19T14:59:11;1.40;;;0.60;;
4603;SDS011;2314;48.272;11.562;2023-11-19T15:01:40;1.40;;;0.60;;
4603;SDS011;2314;48.272;11.562;2023-11-19T15:04:07;1.90;;;0.73;;
4603;SDS011;2314;48.272;11.562;2023-11-19T15:06:35;1.87;;;0.60;;
4603;SDS011;2314;48.272;11.562;2023-11-19T15:09:02;1.40;;;0.50;;
4603;SDS011;2314;48.272;11.562;2023-11-19T15:11:33;2.33;;;0.70;;
4603;SDS011;2314;48.272;11.562;2023-11-19T15:14:03;1.47;;;0.60;;
4603;SDS011;2314;48.272;11.562;2023-11-19T15:16:31;1.50;;;0.60;;